Main page
METAR-TAF:

METAR-TAF

Airports :

Tri-Cities Airport

Pasco, Washington, United States

latitude: 46-16-11N, longitude: 119-07-00W, elevation: 407 ft

Current weather observation

The report was made 36 minutes ago, at 03:53 UTC
Wind 5 mph from the North
Temperature 48°F
Humidity 61%
Pressure 30.04 in. Hg
Visibility: 10 miles
Clear sky

METAR: KPSC 230353Z 35004KT 10SM CLR 09/02 A3004 RMK AO2 SLP175 T00940017

Time: 21:29 (04:29 UTC)

Forecast

The report was made 5 hours and 9 minutes ago, at 23:20 UTC
Forecast valid from 23 at 00 UTC to 23 at 24 UTC
Wind 7 mph from variable directions
Visibility: 6 miles
Scattered clouds at a height of 20000 ft
From 23 at 0300 UTC
Wind 3 mph from variable directions
Visibility: 6 miles
Broken clouds at a height of 20000 ft

TAF: KPSC 222320Z 2300/2324 VRB06KT P6SM SCT200 FM230300 VRB03KT P6SM BKN200

Weather observations and forecasts of more than 4000 airports (METAR and TAF reports).

The available stations are represented by yellow and red dots on the map.

Hover mouse over dot to see the name of the station.

Then click to see weather observations and forecasts.

To change the map : click on the green buttons with a black cross to zoom in, on the green button with a dash to zoom out, or on the green arrows for adjacent maps.


METAR-TAF: